Time;durP1;ratioP1;P1;durP2;ratioP2;P2;SDS_P1;SDS_P2;PMS_P1;PMS_P2;Temp;Humidity;BMP_temperature;BMP_pressure;BME280_temperature;BME280_humidity;BME280_pressure;Samples;Min_cycle;Max_cycle;Signal;HPM_P1;HPM_P2
2023/07/02 00:01:09;;;;;;;6.13;5.53;;;15.80;99.90;;;;;;5074711;28;20205;-72
2023/07/02 00:03:35;;;;;;;5.73;5.03;;;15.80;99.90;;;;;;5074875;28;20197;-72
2023/07/02 00:06:03;;;;;;;6.80;5.00;;;15.80;99.90;;;;;;5074483;28;20623;-72
2023/07/02 00:08:30;;;;;;;5.57;5.07;;;15.90;99.90;;;;;;5074206;28;20221;-72
2023/07/02 00:10:57;;;;;;;5.30;4.77;;;15.90;99.90;;;;;;5074544;28;20197;-72
2023/07/02 00:13:23;;;;;;;5.40;4.77;;;15.90;99.90;;;;;;5074440;28;20197;-72
2023/07/02 00:15:50;;;;;;;5.27;4.77;;;15.90;99.90;;;;;;5074412;28;20254;-72
2023/07/02 00:18:16;;;;;;;5.10;4.60;;;16.00;99.90;;;;;;5074168;28;20650;-72
2023/07/02 00:20:43;;;;;;;5.90;4.90;;;16.00;99.90;;;;;;5074376;28;20689;-72
2023/07/02 00:23:11;;;;;;;6.03;4.37;;;16.00;99.90;;;;;;5074053;28;20201;-72
2023/07/02 00:25:38;;;;;;;5.68;4.47;;;16.10;99.90;;;;;;5074229;28;20564;-72
2023/07/02 00:28:05;;;;;;;4.97;4.47;;;16.10;99.90;;;;;;5074083;28;20193;-71
2023/07/02 00:30:31;;;;;;;5.07;4.57;;;16.10;99.90;;;;;;5074082;28;20192;-72
2023/07/02 00:32:58;;;;;;;5.10;4.60;;;16.10;99.90;;;;;;5073973;28;20205;-72
2023/07/02 00:35:25;;;;;;;4.53;4.13;;;16.10;99.90;;;;;;5073915;28;20213;-71
2023/07/02 00:37:51;;;;;;;5.20;4.80;;;16.20;99.90;;;;;;5073996;28;20205;-72
2023/07/02 00:40:19;;;;;;;4.53;4.13;;;16.20;99.90;;;;;;5073017;28;20205;-72
2023/07/02 00:42:46;;;;;;;4.53;4.13;;;16.20;99.90;;;;;;5073884;28;20193;-72
2023/07/02 00:45:12;;;;;;;5.40;4.57;;;16.20;99.90;;;;;;5073721;28;20197;-71
2023/07/02 00:47:39;;;;;;;5.20;4.30;;;16.30;99.90;;;;;;5073696;28;20194;-71
2023/07/02 00:50:09;;;;;;;4.57;4.03;;;16.30;99.90;;;;;;5073387;28;20565;-71
2023/07/02 00:52:35;;;;;;;4.80;4.20;;;16.30;99.90;;;;;;5073679;28;20612;-72
2023/07/02 00:55:02;;;;;;;4.70;4.13;;;16.40;99.90;;;;;;5073499;28;20197;-71
2023/07/02 00:57:30;;;;;;;4.97;4.50;;;16.40;99.90;;;;;;5073530;28;20274;-72
2023/07/02 00:59:59;;;;;;;6.20;4.00;;;16.40;99.90;;;;;;5073272;28;20660;-71
2023/07/02 01:02:29;;;;;;;5.67;4.43;;;16.40;99.90;;;;;;5073429;28;20201;-71
2023/07/02 01:04:58;;;;;;;6.03;4.80;;;16.40;99.90;;;;;;5073580;28;20193;-72
2023/07/02 01:07:24;;;;;;;5.17;4.53;;;16.40;99.90;;;;;;5073540;28;20254;-71
2023/07/02 01:09:51;;;;;;;5.30;4.50;;;16.40;99.90;;;;;;5073139;28;20757;-71
2023/07/02 01:12:21;;;;;;;5.32;4.82;;;16.40;99.90;;;;;;5073286;28;20209;-71
2023/07/02 01:14:52;;;;;;;5.93;4.70;;;16.50;99.90;;;;;;5073220;28;20204;-71
2023/07/02 01:17:20;;;;;;;4.23;3.83;;;16.40;99.90;;;;;;5073201;28;20204;-72
2023/07/02 01:19:51;;;;;;;6.70;4.85;;;16.40;99.90;;;;;;5073288;28;20299;-71
2023/07/02 01:22:18;;;;;;;6.97;4.10;;;16.40;99.90;;;;;;5073209;28;20288;-70
2023/07/02 01:24:47;;;;;;;4.43;4.03;;;16.50;99.90;;;;;;5073106;28;20254;-70
2023/07/02 01:27:14;;;;;;;4.20;3.80;;;16.40;99.90;;;;;;5072924;28;20565;-71
2023/07/02 01:29:42;;;;;;;7.73;4.47;;;16.40;99.90;;;;;;5072683;28;20274;-70
2023/07/02 01:32:09;;;;;;;5.10;4.57;;;16.40;99.90;;;;;;5073287;28;20201;-70
2023/07/02 01:34:35;;;;;;;4.53;4.13;;;16.40;99.90;;;;;;5072951;28;20749;-70
2023/07/02 01:37:04;;;;;;;4.27;3.87;;;16.30;99.90;;;;;;5072846;28;20777;-70
2023/07/02 01:39:31;;;;;;;4.07;3.67;;;16.30;99.90;;;;;;5072868;28;20251;-70
2023/07/02 01:42:08;;;;;;;5.13;4.00;;;16.30;99.90;;;;;;5072807;28;20193;-70
2023/07/02 01:44:35;;;;;;;4.50;3.57;;;16.30;99.90;;;;;;5073229;28;20201;-70
2023/07/02 01:47:02;;;;;;;6.53;4.17;;;16.20;99.90;;;;;;5072718;28;20197;-70
2023/07/02 01:49:29;;;;;;;3.80;3.40;;;16.20;99.90;;;;;;5072800;28;20228;-71
2023/07/02 01:51:57;;;;;;;4.63;3.77;;;16.10;99.90;;;;;;5072631;28;20197;-71
2023/07/02 01:54:27;;;;;;;4.67;3.90;;;16.10;99.90;;;;;;5072705;28;20246;-71
2023/07/02 01:56:54;;;;;;;4.47;3.80;;;15.90;99.90;;;;;;5072552;28;20264;-70
2023/07/02 01:59:21;;;;;;;4.37;3.97;;;15.90;99.90;;;;;;5072789;28;20610;-70
2023/07/02 02:01:47;;;;;;;4.80;3.70;;;15.80;99.90;;;;;;5072749;28;20193;-70
2023/07/02 02:04:14;;;;;;;5.27;4.37;;;15.70;99.90;;;;;;5072628;28;20248;-71
2023/07/02 02:06:41;;;;;;;4.00;3.60;;;15.60;99.90;;;;;;5072577;28;20193;-71
2023/07/02 02:09:09;;;;;;;7.20;4.17;;;15.60;99.90;;;;;;5072370;28;20212;-72
2023/07/02 02:11:40;;;;;;;4.87;4.20;;;15.50;99.90;;;;;;5072671;28;20209;-71
2023/07/02 02:14:07;;;;;;;5.87;4.07;;;15.40;99.90;;;;;;5072652;28;20631;-71
2023/07/02 02:16:34;;;;;;;5.17;4.20;;;15.30;99.90;;;;;;5072498;28;20239;-71
2023/07/02 02:19:01;;;;;;;4.03;3.70;;;15.30;99.90;;;;;;5072486;28;20197;-71
2023/07/02 02:21:28;;;;;;;6.73;3.93;;;15.20;99.90;;;;;;5072393;28;20197;-70
2023/07/02 02:23:55;;;;;;;4.17;3.63;;;15.20;99.90;;;;;;5072287;28;20342;-70
2023/07/02 02:26:22;;;;;;;4.33;3.93;;;15.20;99.90;;;;;;5072550;28;20242;-70
2023/07/02 02:28:50;;;;;;;4.27;3.93;;;15.00;99.90;;;;;;5072340;28;20200;-70
2023/07/02 02:31:17;;;;;;;4.67;4.20;;;15.00;99.90;;;;;;5072415;28;20201;-71
2023/07/02 02:33:43;;;;;;;5.87;4.20;;;14.90;99.90;;;;;;5072330;28;20231;-70
2023/07/02 02:36:10;;;;;;;5.87;4.20;;;14.90;99.90;;;;;;5072171;28;20200;-71
2023/07/02 02:38:37;;;;;;;7.40;4.40;;;14.80;99.90;;;;;;5072220;28;20649;-71
2023/07/02 02:41:04;;;;;;;4.70;4.20;;;14.80;99.90;;;;;;5072384;28;20600;-71
2023/07/02 02:43:31;;;;;;;5.80;4.57;;;14.80;99.90;;;;;;5072357;28;20193;-71
2023/07/02 02:45:59;;;;;;;5.37;4.53;;;14.80;99.90;;;;;;5072451;28;20197;-72
2023/07/02 02:48:25;;;;;;;5.37;4.43;;;14.70;99.90;;;;;;5072311;28;20247;-71
2023/07/02 02:50:52;;;;;;;9.73;5.33;;;14.70;99.90;;;;;;5072034;28;20266;-71
2023/07/02 02:53:19;;;;;;;4.87;4.37;;;14.70;99.90;;;;;;5072256;28;20227;-71
2023/07/02 02:55:45;;;;;;;5.97;4.40;;;14.60;99.90;;;;;;5071910;28;20712;-71
2023/07/02 02:58:12;;;;;;;6.60;4.30;;;14.60;99.90;;;;;;5072241;28;20269;-71
2023/07/02 03:00:42;;;;;;;6.53;4.47;;;14.60;99.90;;;;;;5072325;28;20714;-71
2023/07/02 03:03:10;;;;;;;5.80;4.47;;;14.60;99.90;;;;;;5072836;28;20229;-71
2023/07/02 03:05:36;;;;;;;4.80;4.30;;;14.60;99.90;;;;;;5075421;28;20273;-71
2023/07/02 03:08:03;;;;;;;6.40;4.63;;;14.60;99.90;;;;;;5076000;28;20197;-71
2023/07/02 03:10:30;;;;;;;4.93;4.40;;;14.60;99.90;;;;;;5075726;28;20233;-72
2023/07/02 03:12:57;;;;;;;6.73;4.20;;;14.50;99.90;;;;;;5075625;28;20714;-71
2023/07/02 03:15:23;;;;;;;5.20;4.70;;;14.50;99.90;;;;;;5075602;28;20197;-70
2023/07/02 03:17:50;;;;;;;5.73;4.23;;;14.60;99.90;;;;;;5075408;28;20205;-71
2023/07/02 03:20:18;;;;;;;6.10;4.30;;;14.60;99.90;;;;;;5075685;28;20200;-70
2023/07/02 03:22:44;;;;;;;6.10;4.33;;;14.70;99.90;;;;;;5075573;28;20201;-70
2023/07/02 03:25:11;;;;;;;4.60;4.20;;;14.70;99.90;;;;;;5075394;28;20242;-71
2023/07/02 03:27:38;;;;;;;4.87;4.30;;;14.70;99.90;;;;;;5075250;28;20838;-71
2023/07/02 03:30:05;;;;;;;6.40;4.50;;;14.80;99.90;;;;;;5075160;28;20213;-72
2023/07/02 03:32:32;;;;;;;5.07;4.07;;;14.80;99.90;;;;;;5075088;28;20197;-70
2023/07/02 03:34:59;;;;;;;6.70;4.20;;;14.80;99.90;;;;;;5075184;28;20197;-72
2023/07/02 03:37:26;;;;;;;5.57;4.03;;;14.80;99.90;;;;;;5075224;28;20247;-71
2023/07/02 03:39:53;;;;;;;4.73;4.20;;;14.80;99.90;;;;;;5075238;28;20649;-70
2023/07/02 03:42:20;;;;;;;4.90;4.07;;;14.80;99.90;;;;;;5075009;28;20254;-71
2023/07/02 03:44:46;;;;;;;5.67;4.33;;;14.80;99.90;;;;;;5074967;28;20201;-71
2023/07/02 03:47:15;;;;;;;10.30;4.30;;;14.80;99.90;;;;;;5075057;28;20209;-70
2023/07/02 03:49:42;;;;;;;6.77;4.67;;;14.80;99.90;;;;;;5074680;28;20717;-71
2023/07/02 03:52:09;;;;;;;4.70;4.20;;;14.80;99.90;;;;;;5074839;28;20282;-70
2023/07/02 03:54:37;;;;;;;4.83;4.33;;;14.80;99.90;;;;;;5074872;28;20227;-71
2023/07/02 03:57:04;;;;;;;5.30;4.27;;;14.80;99.90;;;;;;5074538;28;20229;-71
2023/07/02 03:59:30;;;;;;;6.23;4.40;;;14.90;99.90;;;;;;5074559;28;20680;-71
2023/07/02 04:01:57;;;;;;;6.47;3.97;;;15.00;99.90;;;;;;5074952;28;20197;-71
2023/07/02 04:04:24;;;;;;;7.63;4.30;;;15.00;99.90;;;;;;5074687;28;20207;-72
2023/07/02 04:06:50;;;;;;;4.93;4.40;;;15.10;99.90;;;;;;5074443;28;20660;-71
2023/07/02 04:09:18;;;;;;;5.30;4.27;;;15.20;99.90;;;;;;5074612;28;20197;-72
2023/07/02 04:11:46;;;;;;;4.33;3.90;;;15.10;99.90;;;;;;5074414;28;20274;-71
2023/07/02 04:14:12;;;;;;;5.97;4.10;;;15.20;99.90;;;;;;5074284;28;20255;-71
2023/07/02 04:16:39;;;;;;;4.90;4.20;;;15.20;99.90;;;;;;5074533;28;20205;-71
2023/07/02 04:19:06;;;;;;;7.73;4.50;;;15.30;99.90;;;;;;5074097;28;20722;-71
2023/07/02 04:21:32;;;;;;;5.37;3.90;;;15.30;99.90;;;;;;5074185;28;20205;-71
2023/07/02 04:23:59;;;;;;;7.87;4.00;;;15.40;99.90;;;;;;5074117;28;20197;-71
2023/07/02 04:26:26;;;;;;;4.40;4.00;;;15.40;99.90;;;;;;5074010;28;20664;-72
2023/07/02 04:28:54;;;;;;;4.73;3.93;;;15.50;99.90;;;;;;5074176;28;20228;-71
2023/07/02 04:31:21;;;;;;;6.97;3.83;;;15.50;99.90;;;;;;5073960;28;20232;-72
2023/07/02 04:33:48;;;;;;;5.90;3.97;;;15.50;99.90;;;;;;5073826;28;20588;-72
2023/07/02 04:36:14;;;;;;;5.93;3.80;;;15.50;99.90;;;;;;5073919;28;20197;-71
2023/07/02 04:38:41;;;;;;;7.20;4.10;;;15.50;99.90;;;;;;5073911;28;20197;-72
2023/07/02 04:41:10;;;;;;;5.67;3.97;;;15.50;99.90;;;;;;5073861;28;20193;-71
2023/07/02 04:43:36;;;;;;;5.37;4.00;;;15.50;99.90;;;;;;5073882;28;20625;-71
2023/07/02 04:46:07;;;;;;;7.60;4.43;;;15.50;99.90;;;;;;5073798;28;20201;-71
2023/07/02 04:48:34;;;;;;;6.20;4.17;;;15.50;99.90;;;;;;5073677;28;20197;-71
2023/07/02 04:51:00;;;;;;;6.20;4.63;;;15.50;99.90;;;;;;5073488;28;20298;-71
2023/07/02 04:53:27;;;;;;;7.60;4.83;;;15.60;99.90;;;;;;5073534;28;20231;-71
2023/07/02 04:55:54;;;;;;;6.70;5.00;;;15.60;99.90;;;;;;5073204;28;20228;-71
2023/07/02 04:58:21;;;;;;;10.23;5.60;;;15.60;99.90;;;;;;5073483;28;20205;-71
2023/07/02 05:00:48;;;;;;;12.10;6.23;;;15.60;99.90;;;;;;5073303;28;20603;-71
2023/07/02 05:03:16;;;;;;;7.30;5.40;;;15.60;99.90;;;;;;5077408;28;20197;-71
2023/07/02 05:05:42;;;;;;;8.33;5.50;;;15.60;99.90;;;;;;5073420;28;20266;-71
2023/07/02 05:08:09;;;;;;;7.90;6.20;;;15.60;99.90;;;;;;5073409;28;20254;-71
2023/07/02 05:10:35;;;;;;;8.27;5.67;;;15.70;99.90;;;;;;5073364;28;20221;-72
2023/07/02 05:13:02;;;;;;;10.27;6.00;;;15.70;99.90;;;;;;5073517;28;20193;-71
2023/07/02 05:15:29;;;;;;;9.37;6.40;;;15.70;99.90;;;;;;5073286;28;20193;-71
2023/07/02 05:17:55;;;;;;;8.70;5.87;;;15.70;99.90;;;;;;5073190;28;20251;-71
2023/07/02 05:20:23;;;;;;;8.63;5.93;;;15.80;99.90;;;;;;5073111;28;20259;-71
2023/07/02 05:22:50;;;;;;;9.97;6.27;;;15.90;99.90;;;;;;5072910;28;20254;-71
2023/07/02 05:25:17;;;;;;;11.82;6.60;;;15.90;99.90;;;;;;5073128;28;20197;-71
2023/07/02 05:27:43;;;;;;;8.32;5.68;;;15.90;99.90;;;;;;5072608;28;20205;-72
2023/07/02 05:30:11;;;;;;;10.17;5.97;;;15.90;99.90;;;;;;5072862;28;20752;-71
2023/07/02 05:32:39;;;;;;;11.10;6.67;;;15.90;99.90;;;;;;5072896;28;20606;-71
2023/07/02 05:35:06;;;;;;;11.27;6.03;;;16.00;99.90;;;;;;5072798;28;20597;-71
2023/07/02 05:37:34;;;;;;;12.57;7.57;;;16.10;99.90;;;;;;5072759;28;20193;-71
2023/07/02 05:40:00;;;;;;;10.13;6.33;;;16.10;99.90;;;;;;5072956;28;20201;-71
2023/07/02 05:42:27;;;;;;;12.00;6.50;;;16.20;99.90;;;;;;5072923;28;20247;-71
2023/07/02 05:44:54;;;;;;;11.13;6.95;;;16.20;99.90;;;;;;5072728;28;20200;-71
2023/07/02 05:47:20;;;;;;;13.83;8.10;;;16.40;99.90;;;;;;5072777;28;20197;-71
2023/07/02 05:49:47;;;;;;;11.80;7.88;;;16.30;99.90;;;;;;5072665;28;20196;-71
2023/07/02 05:52:13;;;;;;;15.57;8.73;;;16.40;99.90;;;;;;5072593;28;20584;-71
2023/07/02 05:54:42;;;;;;;10.57;8.18;;;16.40;99.90;;;;;;5072779;28;20227;-71
2023/07/02 05:57:08;;;;;;;13.45;8.38;;;16.60;99.90;;;;;;5072718;28;20196;-71
2023/07/02 05:59:35;;;;;;;11.25;8.77;;;16.70;99.90;;;;;;5072698;28;20201;-71
2023/07/02 06:02:02;;;;;;;14.07;8.40;;;16.60;99.90;;;;;;5072628;28;20256;-71
2023/07/02 06:04:28;;;;;;;11.70;8.30;;;16.50;99.90;;;;;;5072492;28;20243;-71
2023/07/02 06:06:55;;;;;;;11.82;8.25;;;16.50;99.90;;;;;;5072824;28;20205;-71
2023/07/02 06:09:21;;;;;;;12.73;7.90;;;16.40;99.90;;;;;;5073000;28;20205;-71
2023/07/02 06:11:50;;;;;;;15.73;8.37;;;16.50;99.90;;;;;;5072509;28;20648;-71
2023/07/02 06:14:16;;;;;;;12.18;8.07;;;16.60;99.90;;;;;;5072659;28;20197;-71
2023/07/02 06:16:43;;;;;;;11.52;7.95;;;16.70;99.90;;;;;;5072571;28;20657;-72
2023/07/02 06:19:10;;;;;;;11.67;7.20;;;16.80;99.90;;;;;;5072497;28;20300;-71
2023/07/02 06:21:37;;;;;;;10.82;7.25;;;16.90;99.90;;;;;;5072631;28;20534;-72
2023/07/02 06:24:04;;;;;;;11.85;7.40;;;16.80;99.90;;;;;;5072472;28;20200;-71
2023/07/02 06:26:32;;;;;;;11.40;7.35;;;16.80;99.90;;;;;;5072409;28;20201;-71
2023/07/02 06:29:00;;;;;;;10.30;7.10;;;16.60;99.90;;;;;;5072485;28;20193;-71
2023/07/02 06:31:26;;;;;;;15.77;8.07;;;16.50;99.90;;;;;;5072197;28;20220;-72
2023/07/02 06:33:53;;;;;;;11.77;7.28;;;16.70;99.90;;;;;;5072249;28;20201;-70
2023/07/02 06:36:20;;;;;;;11.02;7.68;;;16.70;99.90;;;;;;5072448;28;20201;-71
2023/07/02 06:38:46;;;;;;;17.27;8.00;;;17.00;99.90;;;;;;5074162;28;20641;-70
2023/07/02 06:41:13;;;;;;;12.15;7.63;;;17.10;99.90;;;;;;5076243;28;20201;-70
2023/07/02 06:43:42;;;;;;;14.05;7.95;;;17.00;99.90;;;;;;5076258;28;20197;-70
2023/07/02 06:46:10;;;;;;;12.68;7.70;;;17.00;99.90;;;;;;5075956;28;20196;-70
2023/07/02 06:48:37;;;;;;;13.20;8.13;;;16.90;99.90;;;;;;5075861;28;20201;-70
2023/07/02 06:51:04;;;;;;;15.82;8.07;;;17.10;99.90;;;;;;5075920;28;20221;-71
2023/07/02 06:53:30;;;;;;;13.40;8.27;;;17.50;99.90;;;;;;5075692;28;20712;-71
2023/07/02 06:55:57;;;;;;;15.00;8.57;;;17.80;99.90;;;;;;5075615;28;20286;-71
2023/07/02 06:58:24;;;;;;;13.20;7.90;;;17.60;99.90;;;;;;5075666;28;20247;-71
2023/07/02 07:00:50;;;;;;;12.35;8.68;;;17.70;99.90;;;;;;5075653;28;20270;-70
2023/07/02 07:03:18;;;;;;;13.05;8.73;;;17.40;99.90;;;;;;5075923;28;20672;-71
2023/07/02 07:05:45;;;;;;;12.07;8.82;;;17.30;99.90;;;;;;5075787;28;20201;-71
2023/07/02 07:08:11;;;;;;;16.23;8.57;;;17.30;99.90;;;;;;5075809;28;20246;-70
2023/07/02 07:10:38;;;;;;;13.55;9.18;;;17.30;99.90;;;;;;5075521;28;20685;-71
2023/07/02 07:13:05;;;;;;;13.85;9.13;;;17.40;99.90;;;;;;5075520;28;20255;-71
2023/07/02 07:15:35;;;;;;;13.68;8.98;;;17.30;99.90;;;;;;5076036;28;20199;-71
2023/07/02 07:18:01;;;;;;;12.68;9.65;;;17.60;99.90;;;;;;5075633;28;20293;-71
2023/07/02 07:20:29;;;;;;;15.18;9.45;;;17.60;99.90;;;;;;5075429;28;20197;-70
2023/07/02 07:22:56;;;;;;;11.50;9.20;;;17.40;99.90;;;;;;5075270;28;20204;-70
2023/07/02 07:25:23;;;;;;;13.90;8.77;;;17.70;99.90;;;;;;5075231;28;20197;-71
2023/07/02 07:27:49;;;;;;;13.23;8.80;;;17.70;99.90;;;;;;5075086;28;20250;-70
2023/07/02 07:30:22;;;;;;;15.38;9.13;;;17.90;99.90;;;;;;5075494;28;20193;-70
2023/07/02 07:32:49;;;;;;;12.98;9.13;;;18.20;99.90;;;;;;5075420;28;20380;-71
2023/07/02 07:35:16;;;;;;;15.57;8.98;;;18.00;99.90;;;;;;5075279;28;20197;-70
2023/07/02 07:37:44;;;;;;;16.25;9.32;;;18.00;99.90;;;;;;5075195;28;20683;-71
2023/07/02 07:40:11;;;;;;;16.10;8.90;;;18.10;99.90;;;;;;5075475;28;20235;-71
2023/07/02 07:42:38;;;;;;;13.15;9.27;;;18.50;99.90;;;;;;5075444;28;20208;-71
2023/07/02 07:45:05;;;;;;;12.07;8.80;;;18.30;99.90;;;;;;5075278;28;20200;-71
2023/07/02 07:47:32;;;;;;;12.85;8.95;;;18.30;99.90;;;;;;5075094;28;20205;-71
2023/07/02 07:49:59;;;;;;;14.40;9.05;;;18.10;99.90;;;;;;5074704;28;20250;-71
2023/07/02 07:52:25;;;;;;;12.85;9.00;;;18.40;99.90;;;;;;5074697;28;20284;-70
2023/07/02 07:54:53;;;;;;;14.80;8.93;;;18.20;99.90;;;;;;5074567;28;20209;-71
2023/07/02 07:57:20;;;;;;;12.60;8.70;;;18.40;99.90;;;;;;5074842;28;20201;-71
2023/07/02 07:59:46;;;;;;;15.68;9.82;;;18.30;99.90;;;;;;5074913;28;20201;-71
2023/07/02 08:02:13;;;;;;;14.25;8.70;;;18.20;99.90;;;;;;5074624;28;20645;-71
2023/07/02 08:04:40;;;;;;;13.75;8.93;;;18.50;99.90;;;;;;5074800;28;20262;-71
2023/07/02 08:07:08;;;;;;;14.70;9.05;;;18.40;99.90;;;;;;5074582;28;20197;-71
2023/07/02 08:09:35;;;;;;;16.55;9.63;;;18.40;99.90;;;;;;5074494;28;20247;-71
2023/07/02 08:12:04;;;;;;;14.13;8.93;;;18.60;99.90;;;;;;5074362;28;20627;-71
2023/07/02 08:14:30;;;;;;;13.73;8.93;;;18.50;99.90;;;;;;5074593;28;20223;-71
2023/07/02 08:16:57;;;;;;;12.48;8.27;;;18.80;99.90;;;;;;5074524;28;20197;-71
2023/07/02 08:19:24;;;;;;;11.35;7.88;;;18.80;99.90;;;;;;5074204;28;20250;-71
2023/07/02 08:21:51;;;;;;;11.18;7.80;;;18.40;99.90;;;;;;5074195;28;20239;-71
2023/07/02 08:24:17;;;;;;;10.68;7.40;;;18.60;99.90;;;;;;5074080;28;20247;-70
2023/07/02 08:26:45;;;;;;;11.23;7.53;;;18.90;99.90;;;;;;5074057;28;20706;-71
2023/07/02 08:29:13;;;;;;;11.93;8.38;;;18.90;99.90;;;;;;5074151;28;20196;-71
2023/07/02 08:31:40;;;;;;;12.63;8.23;;;19.10;99.90;;;;;;5074015;28;20216;-71
2023/07/02 08:34:07;;;;;;;9.20;7.57;;;19.20;99.90;;;;;;5074018;28;20193;-71
2023/07/02 08:36:33;;;;;;;10.77;7.55;;;19.20;99.90;;;;;;5073878;28;20204;-71
2023/07/02 08:39:00;;;;;;;11.45;7.13;;;19.10;99.90;;;;;;5074216;28;20197;-72
2023/07/02 08:41:27;;;;;;;9.25;7.43;;;19.70;99.90;;;;;;5073945;28;20193;-72
2023/07/02 08:43:56;;;;;;;12.55;7.38;;;19.60;99.90;;;;;;5073710;28;20672;-71
2023/07/02 08:46:24;;;;;;;10.80;7.15;;;19.50;99.90;;;;;;5073880;28;20565;-71
2023/07/02 08:48:51;;;;;;;9.50;6.80;;;19.70;99.90;;;;;;5073801;28;20276;-71
2023/07/02 08:51:17;;;;;;;8.75;6.03;;;19.80;99.90;;;;;;5073578;28;20220;-71
2023/07/02 08:53:44;;;;;;;7.78;5.68;;;20.50;99.30;;;;;;5073799;28;20250;-70
2023/07/02 08:56:11;;;;;;;8.73;6.65;;;20.10;98.40;;;;;;5073483;28;20286;-70
2023/07/02 08:58:37;;;;;;;11.70;6.28;;;20.10;97.80;;;;;;5073442;28;20648;-71
2023/07/02 09:01:12;;;;;;;9.20;6.03;;;20.00;98.00;;;;;;5072845;28;20197;-70
2023/07/02 09:03:42;;;;;;;8.05;6.03;;;20.00;97.60;;;;;;5073213;28;20327;-70
2023/07/02 09:06:09;;;;;;;8.88;5.22;;;19.90;96.50;;;;;;5073379;28;20570;-71
2023/07/02 09:08:37;;;;;;;7.60;5.78;;;20.00;95.80;;;;;;5073460;28;20254;-71
2023/07/02 09:11:08;;;;;;;6.47;5.70;;;20.50;95.70;;;;;;5073222;28;20197;-71
2023/07/02 09:13:43;;;;;;;8.20;5.75;;;20.60;94.50;;;;;;5073285;28;20201;-70
2023/07/02 09:16:20;;;;;;;7.47;5.75;;;20.70;94.50;;;;;;5073175;28;20197;-71
2023/07/02 09:19:01;;;;;;;8.85;5.93;;;20.40;94.50;;;;;;5073313;28;20262;-71
2023/07/02 09:21:29;;;;;;;10.40;6.10;;;20.60;93.60;;;;;;5073250;28;20603;-71
2023/07/02 09:23:55;;;;;;;9.40;5.90;;;20.40;93.10;;;;;;5073272;28;20197;-70
2023/07/02 09:26:22;;;;;;;11.52;6.65;;;20.70;91.90;;;;;;5073235;28;20197;-70
2023/07/02 09:28:49;;;;;;;9.73;7.20;;;20.30;92.80;;;;;;5072985;28;20197;-71
2023/07/02 09:31:16;;;;;;;8.90;6.63;;;20.30;92.90;;;;;;5073198;28;20197;-70
2023/07/02 09:33:43;;;;;;;11.20;7.68;;;20.60;92.30;;;;;;5073237;28;20201;-71
2023/07/02 09:36:13;;;;;;;10.93;7.65;;;21.00;91.80;;;;;;5073032;28;20738;-71
2023/07/02 09:38:40;;;;;;;8.45;6.57;;;21.40;90.90;;;;;;5073293;28;20200;-71
2023/07/02 09:41:08;;;;;;;12.75;7.32;;;21.10;90.80;;;;;;5072870;28;20648;-71
2023/07/02 09:43:34;;;;;;;9.50;8.48;;;21.60;88.00;;;;;;5072847;28;20254;-71
2023/07/02 09:46:01;;;;;;;13.70;9.05;;;21.00;88.90;;;;;;5072861;28;20718;-71
2023/07/02 09:48:30;;;;;;;14.75;8.40;;;21.00;90.20;;;;;;5072955;28;20270;-71
2023/07/02 09:51:00;;;;;;;11.77;8.57;;;21.10;89.10;;;;;;5072837;28;20236;-70
2023/07/02 09:53:29;;;;;;;10.30;8.10;;;21.70;86.40;;;;;;5072930;28;20702;-70
2023/07/02 09:55:56;;;;;;;12.93;9.30;;;21.70;83.30;;;;;;5072505;28;20229;-71
2023/07/02 09:58:23;;;;;;;12.63;9.43;;;22.00;82.80;;;;;;5072745;28;20197;-71
2023/07/02 10:00:50;;;;;;;10.63;9.23;;;21.30;84.80;;;;;;5072926;28;20242;-71
2023/07/02 10:03:17;;;;;;;15.00;9.63;;;22.00;84.40;;;;;;5072718;28;20196;-71
2023/07/02 10:05:44;;;;;;;20.90;10.98;;;22.00;81.20;;;;;;5072817;28;20200;-71
2023/07/02 10:08:15;;;;;;;13.70;10.07;;;22.20;79.80;;;;;;5072876;28;20649;-71
2023/07/02 10:10:43;;;;;;;14.68;10.95;;;21.70;80.60;;;;;;5072855;28;20545;-72
2023/07/02 10:13:10;;;;;;;14.25;10.52;;;20.80;83.70;;;;;;5075185;28;20228;-72
2023/07/02 10:15:37;;;;;;;14.50;10.40;;;21.80;83.50;;;;;;5076769;28;20196;-71
2023/07/02 10:18:04;;;;;;;13.57;11.13;;;22.80;80.70;;;;;;5076668;28;20196;-71
2023/07/02 10:20:35;;;;;;;13.77;10.05;;;22.70;77.10;;;;;;5076637;28;20250;-72
2023/07/02 10:23:03;;;;;;;15.27;10.60;;;23.00;76.90;;;;;;5076416;28;20772;-72
2023/07/02 10:25:31;;;;;;;14.13;10.57;;;23.20;76.30;;;;;;5076686;28;20278;-71
2023/07/02 10:28:00;;;;;;;14.68;10.68;;;22.70;74.70;;;;;;5076498;28;20197;-72
2023/07/02 10:30:35;;;;;;;16.17;10.65;;;22.50;73.80;;;;;;5076471;28;20193;-72
2023/07/02 10:33:10;;;;;;;21.08;10.60;;;22.20;72.60;;;;;;5076137;28;20692;-72
2023/07/02 10:35:37;;;;;;;14.38;11.10;;;22.20;73.40;;;;;;5076233;28;20613;-72
2023/07/02 10:38:06;;;;;;;16.02;11.23;;;21.70;73.70;;;;;;5076445;28;20254;-71
2023/07/02 10:40:33;;;;;;;17.25;12.20;;;22.50;73.70;;;;;;5076096;28;20695;-73
2023/07/02 10:43:01;;;;;;;14.73;11.95;;;22.30;74.50;;;;;;5076169;28;20232;-72
2023/07/02 10:45:34;;;;;;;16.63;12.32;;;22.10;75.60;;;;;;5076456;28;20208;-72
2023/07/02 10:48:04;;;;;;;15.13;12.18;;;22.60;74.60;;;;;;5075857;28;20201;-72
2023/07/02 10:50:32;;;;;;;16.23;11.82;;;23.00;72.40;;;;;;5076160;28;20201;-73
2023/07/02 10:52:59;;;;;;;18.48;13.00;;;22.80;72.40;;;;;;5075839;28;20228;-71
2023/07/02 10:55:26;;;;;;;15.93;11.85;;;21.70;73.20;;;;;;5075778;28;20689;-71
2023/07/02 10:58:05;;;;;;;19.52;12.27;;;21.80;74.50;;;;;;5075710;28;20633;-70
2023/07/02 11:00:32;;;;;;;20.35;12.57;;;22.30;73.50;;;;;;5075719;28;20254;-71
2023/07/02 11:03:01;;;;;;;15.35;11.77;;;23.20;71.00;;;;;;5075911;28;20204;-71
2023/07/02 11:05:27;;;;;;;17.95;11.75;;;24.40;68.50;;;;;;5075880;28;20197;-71
2023/07/02 11:07:57;;;;;;;16.00;11.88;;;24.50;66.40;;;;;;5075758;28;20660;-71
2023/07/02 11:10:24;;;;;;;14.45;11.65;;;24.50;63.50;;;;;;5075537;28;20197;-71
2023/07/02 11:12:51;;;;;;;13.80;11.60;;;23.70;62.80;;;;;;5075242;28;20231;-72
2023/07/02 11:15:19;;;;;;;14.73;11.68;;;23.70;63.40;;;;;;5075695;28;20201;-71
2023/07/02 11:17:46;;;;;;;17.17;12.75;;;23.40;61.50;;;;;;5075582;28;20201;-71
2023/07/02 11:20:14;;;;;;;18.85;12.55;;;24.30;59.50;;;;;;5075499;28;20623;-71
2023/07/02 11:22:41;;;;;;;17.88;12.02;;;23.30;60.70;;;;;;5075007;28;20201;-72
2023/07/02 11:25:13;;;;;;;14.90;12.25;;;24.50;61.40;;;;;;5074660;28;20219;-71
2023/07/02 11:27:39;;;;;;;18.23;11.75;;;24.20;59.80;;;;;;5075224;28;20923;-71
2023/07/02 11:30:07;;;;;;;18.45;11.82;;;24.30;59.00;;;;;;5075389;28;20231;-71
2023/07/02 11:32:49;;;;;;;15.48;12.70;;;24.60;59.00;;;;;;5075199;28;20278;-71
2023/07/02 11:35:16;;;;;;;15.43;12.40;;;24.60;58.70;;;;;;5075448;28;20250;-71
2023/07/02 11:37:43;;;;;;;18.10;12.23;;;25.10;57.70;;;;;;5074886;28;20200;-72
2023/07/02 11:40:10;;;;;;;15.68;12.45;;;25.10;55.90;;;;;;5075000;28;20243;-71
2023/07/02 11:42:37;;;;;;;15.10;11.23;;;25.10;55.20;;;;;;5074931;28;20661;-71
2023/07/02 11:45:05;;;;;;;16.25;11.93;;;25.50;54.40;;;;;;5075021;28;20596;-71
2023/07/02 11:47:32;;;;;;;15.75;11.77;;;24.70;54.80;;;;;;5075082;28;20231;-71
2023/07/02 11:50:00;;;;;;;19.00;12.05;;;24.50;54.70;;;;;;5075061;28;20201;-71
2023/07/02 11:52:26;;;;;;;15.43;12.13;;;25.40;54.30;;;;;;5074861;28;20224;-72
2023/07/02 11:54:53;;;;;;;16.52;12.30;;;25.50;54.00;;;;;;5074874;28;20253;-71
2023/07/02 11:57:21;;;;;;;17.90;12.70;;;24.40;55.30;;;;;;5075064;28;20193;-71
2023/07/02 11:59:49;;;;;;;16.60;11.90;;;23.40;55.80;;;;;;5074794;28;20208;-72
2023/07/02 12:02:15;;;;;;;17.27;12.90;;;23.30;56.70;;;;;;5074737;28;20292;-72
2023/07/02 12:04:42;;;;;;;16.30;12.77;;;23.90;55.90;;;;;;5074653;28;20657;-72
2023/07/02 12:07:10;;;;;;;16.50;13.13;;;23.10;56.10;;;;;;5074552;28;20648;-72
2023/07/02 12:09:37;;;;;;;19.00;12.85;;;22.60;57.70;;;;;;5074539;28;20599;-71
2023/07/02 12:12:04;;;;;;;16.08;12.40;;;22.60;59.20;;;;;;5074642;28;20205;-71
2023/07/02 12:14:31;;;;;;;14.57;12.25;;;22.80;58.30;;;;;;5074577;28;20265;-71
2023/07/02 12:16:58;;;;;;;14.82;12.10;;;24.70;56.40;;;;;;5074587;28;20201;-71
2023/07/02 12:19:24;;;;;;;16.20;12.40;;;25.20;54.50;;;;;;5074441;28;20573;-71
2023/07/02 12:21:51;;;;;;;17.48;12.40;;;25.40;54.50;;;;;;5074392;28;20193;-71
2023/07/02 12:24:19;;;;;;;17.10;13.07;;;24.40;54.00;;;;;;5074474;28;20205;-71
2023/07/02 12:26:45;;;;;;;19.35;13.90;;;23.80;54.40;;;;;;5074362;28;20201;-71
2023/07/02 12:29:12;;;;;;;14.77;11.40;;;23.70;54.70;;;;;;5074116;28;20597;-72
2023/07/02 12:31:38;;;;;;;17.83;14.23;;;23.60;55.00;;;;;;5074178;28;20213;-71
2023/07/02 12:34:05;;;;;;;18.60;13.50;;;24.50;54.50;;;;;;5073955;28;20251;-71
2023/07/02 12:36:32;;;;;;;18.33;12.23;;;24.10;54.90;;;;;;5073206;28;20261;-71
2023/07/02 12:38:58;;;;;;;17.70;13.13;;;24.50;54.80;;;;;;5074330;28;20251;-71
2023/07/02 12:41:26;;;;;;;15.15;11.90;;;24.80;53.50;;;;;;5074087;28;20259;-72